sensor_id;sensor_type;location;lat;lon;timestamp;P1;durP1;ratioP1;P2;durP2;ratioP2
84146;SDS011;74267;50.434;7.398;2024-03-08T00:01:40;21.55;;;11.75;;
84146;SDS011;74267;50.434;7.398;2024-03-08T00:04:06;21.05;;;12.63;;
84146;SDS011;74267;50.434;7.398;2024-03-08T00:06:31;22.13;;;15.32;;
84146;SDS011;74267;50.434;7.398;2024-03-08T00:08:57;20.58;;;12.30;;
84146;SDS011;74267;50.434;7.398;2024-03-08T00:11:23;19.08;;;12.45;;
84146;SDS011;74267;50.434;7.398;2024-03-08T00:13:51;20.52;;;13.68;;
84146;SDS011;74267;50.434;7.398;2024-03-08T00:16:17;21.60;;;14.95;;
84146;SDS011;74267;50.434;7.398;2024-03-08T00:18:44;17.35;;;11.23;;
84146;SDS011;74267;50.434;7.398;2024-03-08T00:21:10;20.95;;;11.70;;
84146;SDS011;74267;50.434;7.398;2024-03-08T00:23:36;19.63;;;11.30;;
84146;SDS011;74267;50.434;7.398;2024-03-08T00:26:02;17.20;;;11.35;;
84146;SDS011;74267;50.434;7.398;2024-03-08T00:28:29;22.83;;;16.50;;
84146;SDS011;74267;50.434;7.398;2024-03-08T00:30:55;20.58;;;15.07;;
84146;SDS011;74267;50.434;7.398;2024-03-08T00:33:21;19.17;;;15.45;;
84146;SDS011;74267;50.434;7.398;2024-03-08T00:35:46;17.98;;;11.95;;
84146;SDS011;74267;50.434;7.398;2024-03-08T00:38:12;22.15;;;16.33;;
84146;SDS011;74267;50.434;7.398;2024-03-08T00:40:38;22.10;;;15.85;;
84146;SDS011;74267;50.434;7.398;2024-03-08T00:43:03;24.65;;;22.23;;
84146;SDS011;74267;50.434;7.398;2024-03-08T00:45:29;21.55;;;16.90;;
84146;SDS011;74267;50.434;7.398;2024-03-08T00:47:54;19.75;;;12.43;;
84146;SDS011;74267;50.434;7.398;2024-03-08T00:50:19;18.13;;;14.68;;
84146;SDS011;74267;50.434;7.398;2024-03-08T00:52:45;23.40;;;16.60;;
84146;SDS011;74267;50.434;7.398;2024-03-08T00:55:11;19.27;;;11.00;;
84146;SDS011;74267;50.434;7.398;2024-03-08T00:57:37;20.65;;;15.80;;
84146;SDS011;74267;50.434;7.398;2024-03-08T01:00:04;19.40;;;16.27;;
84146;SDS011;74267;50.434;7.398;2024-03-08T01:02:34;18.92;;;16.63;;
84146;SDS011;74267;50.434;7.398;2024-03-08T01:05:00;19.08;;;11.57;;
84146;SDS011;74267;50.434;7.398;2024-03-08T01:07:26;20.85;;;12.73;;
84146;SDS011;74267;50.434;7.398;2024-03-08T01:09:51;22.08;;;15.48;;
84146;SDS011;74267;50.434;7.398;2024-03-08T01:12:16;17.58;;;10.70;;
84146;SDS011;74267;50.434;7.398;2024-03-08T01:14:42;20.17;;;11.43;;
84146;SDS011;74267;50.434;7.398;2024-03-08T01:17:07;18.42;;;11.57;;
84146;SDS011;74267;50.434;7.398;2024-03-08T01:19:34;22.92;;;16.20;;
84146;SDS011;74267;50.434;7.398;2024-03-08T01:22:00;18.63;;;11.10;;
84146;SDS011;74267;50.434;7.398;2024-03-08T01:24:26;22.38;;;14.80;;
84146;SDS011;74267;50.434;7.398;2024-03-08T01:26:51;21.75;;;13.68;;
84146;SDS011;74267;50.434;7.398;2024-03-08T01:29:16;18.98;;;11.52;;
84146;SDS011;74267;50.434;7.398;2024-03-08T01:31:42;17.17;;;13.77;;
84146;SDS011;74267;50.434;7.398;2024-03-08T01:34:07;17.02;;;10.77;;
84146;SDS011;74267;50.434;7.398;2024-03-08T01:36:32;20.25;;;13.40;;
84146;SDS011;74267;50.434;7.398;2024-03-08T01:38:58;20.80;;;11.65;;
84146;SDS011;74267;50.434;7.398;2024-03-08T01:41:23;19.27;;;11.52;;
84146;SDS011;74267;50.434;7.398;2024-03-08T01:43:49;20.60;;;12.30;;
84146;SDS011;74267;50.434;7.398;2024-03-08T01:46:15;17.77;;;10.93;;
84146;SDS011;74267;50.434;7.398;2024-03-08T01:51:09;21.25;;;12.68;;
84146;SDS011;74267;50.434;7.398;2024-03-08T01:53:36;21.02;;;12.02;;
84146;SDS011;74267;50.434;7.398;2024-03-08T01:56:02;20.20;;;12.90;;
84146;SDS011;74267;50.434;7.398;2024-03-08T01:58:29;23.85;;;17.95;;
84146;SDS011;74267;50.434;7.398;2024-03-08T02:00:56;23.40;;;13.82;;
84146;SDS011;74267;50.434;7.398;2024-03-08T02:03:22;20.88;;;12.23;;
84146;SDS011;74267;50.434;7.398;2024-03-08T02:05:47;21.05;;;11.88;;
84146;SDS011;74267;50.434;7.398;2024-03-08T02:08:13;19.48;;;12.77;;
84146;SDS011;74267;50.434;7.398;2024-03-08T02:10:40;20.95;;;15.48;;
84146;SDS011;74267;50.434;7.398;2024-03-08T02:13:07;17.40;;;11.68;;
84146;SDS011;74267;50.434;7.398;2024-03-08T02:18:20;20.40;;;11.13;;
84146;SDS011;74267;50.434;7.398;2024-03-08T02:20:52;19.48;;;12.73;;
84146;SDS011;74267;50.434;7.398;2024-03-08T02:23:18;20.02;;;11.20;;
84146;SDS011;74267;50.434;7.398;2024-03-08T02:25:44;21.02;;;12.07;;
84146;SDS011;74267;50.434;7.398;2024-03-08T02:28:10;19.88;;;12.57;;
84146;SDS011;74267;50.434;7.398;2024-03-08T02:30:37;21.83;;;12.32;;
84146;SDS011;74267;50.434;7.398;2024-03-08T02:33:03;20.60;;;11.27;;
84146;SDS011;74267;50.434;7.398;2024-03-08T02:35:33;21.27;;;13.68;;
84146;SDS011;74267;50.434;7.398;2024-03-08T02:38:02;23.23;;;12.32;;
84146;SDS011;74267;50.434;7.398;2024-03-08T02:40:28;23.23;;;17.20;;
84146;SDS011;74267;50.434;7.398;2024-03-08T02:42:54;22.50;;;12.45;;
84146;SDS011;74267;50.434;7.398;2024-03-08T02:45:19;21.08;;;15.48;;
84146;SDS011;74267;50.434;7.398;2024-03-08T02:47:45;19.73;;;11.00;;
84146;SDS011;74267;50.434;7.398;2024-03-08T02:50:11;24.38;;;16.92;;
84146;SDS011;74267;50.434;7.398;2024-03-08T02:52:36;20.40;;;15.38;;
84146;SDS011;74267;50.434;7.398;2024-03-08T02:55:02;20.00;;;15.02;;
84146;SDS011;74267;50.434;7.398;2024-03-08T02:57:28;18.73;;;12.07;;
84146;SDS011;74267;50.434;7.398;2024-03-08T02:59:53;20.95;;;12.93;;
84146;SDS011;74267;50.434;7.398;2024-03-08T03:02:19;19.00;;;14.63;;
84146;SDS011;74267;50.434;7.398;2024-03-08T03:04:44;23.25;;;16.10;;
84146;SDS011;74267;50.434;7.398;2024-03-08T03:07:09;20.20;;;11.88;;
84146;SDS011;74267;50.434;7.398;2024-03-08T03:09:36;20.38;;;12.23;;
84146;SDS011;74267;50.434;7.398;2024-03-08T03:12:01;20.77;;;12.48;;
84146;SDS011;74267;50.434;7.398;2024-03-08T03:14:27;23.58;;;16.13;;
84146;SDS011;74267;50.434;7.398;2024-03-08T03:16:52;21.67;;;12.20;;
84146;SDS011;74267;50.434;7.398;2024-03-08T03:19:19;23.33;;;14.05;;
84146;SDS011;74267;50.434;7.398;2024-03-08T03:21:45;20.90;;;12.75;;
84146;SDS011;74267;50.434;7.398;2024-03-08T03:24:10;22.58;;;13.50;;
84146;SDS011;74267;50.434;7.398;2024-03-08T03:26:37;19.42;;;12.25;;
84146;SDS011;74267;50.434;7.398;2024-03-08T03:29:05;22.10;;;12.48;;
84146;SDS011;74267;50.434;7.398;2024-03-08T03:31:31;20.67;;;11.93;;
84146;SDS011;74267;50.434;7.398;2024-03-08T03:33:57;24.63;;;13.35;;
84146;SDS011;74267;50.434;7.398;2024-03-08T03:36:26;23.73;;;12.70;;
84146;SDS011;74267;50.434;7.398;2024-03-08T03:38:53;22.67;;;17.33;;
84146;SDS011;74267;50.434;7.398;2024-03-08T03:41:29;21.45;;;13.50;;
84146;SDS011;74267;50.434;7.398;2024-03-08T03:43:55;22.65;;;14.00;;
84146;SDS011;74267;50.434;7.398;2024-03-08T03:46:20;22.80;;;15.05;;
84146;SDS011;74267;50.434;7.398;2024-03-08T03:48:45;24.45;;;17.20;;
84146;SDS011;74267;50.434;7.398;2024-03-08T03:51:11;22.58;;;11.88;;
84146;SDS011;74267;50.434;7.398;2024-03-08T03:53:37;20.38;;;11.85;;
84146;SDS011;74267;50.434;7.398;2024-03-08T03:56:02;20.08;;;13.55;;
84146;SDS011;74267;50.434;7.398;2024-03-08T03:58:32;21.20;;;13.18;;
84146;SDS011;74267;50.434;7.398;2024-03-08T04:00:57;19.38;;;11.15;;
84146;SDS011;74267;50.434;7.398;2024-03-08T04:03:23;21.60;;;16.83;;
84146;SDS011;74267;50.434;7.398;2024-03-08T04:05:48;24.63;;;16.70;;
84146;SDS011;74267;50.434;7.398;2024-03-08T04:08:13;21.63;;;16.15;;
84146;SDS011;74267;50.434;7.398;2024-03-08T04:10:39;19.13;;;11.18;;
84146;SDS011;74267;50.434;7.398;2024-03-08T04:13:06;20.33;;;15.25;;
84146;SDS011;74267;50.434;7.398;2024-03-08T04:15:32;20.63;;;12.50;;
84146;SDS011;74267;50.434;7.398;2024-03-08T04:17:57;22.88;;;16.10;;
84146;SDS011;74267;50.434;7.398;2024-03-08T04:20:25;19.13;;;11.63;;
84146;SDS011;74267;50.434;7.398;2024-03-08T04:22:50;20.15;;;11.55;;
84146;SDS011;74267;50.434;7.398;2024-03-08T04:25:16;18.30;;;11.73;;
84146;SDS011;74267;50.434;7.398;2024-03-08T04:27:41;21.90;;;11.55;;
84146;SDS011;74267;50.434;7.398;2024-03-08T04:30:06;20.73;;;12.40;;
84146;SDS011;74267;50.434;7.398;2024-03-08T04:32:33;24.33;;;12.27;;
84146;SDS011;74267;50.434;7.398;2024-03-08T04:34:58;21.67;;;14.00;;
84146;SDS011;74267;50.434;7.398;2024-03-08T04:37:26;24.63;;;13.90;;
84146;SDS011;74267;50.434;7.398;2024-03-08T04:39:51;22.55;;;16.02;;
84146;SDS011;74267;50.434;7.398;2024-03-08T04:42:17;19.38;;;12.75;;
84146;SDS011;74267;50.434;7.398;2024-03-08T04:44:43;21.80;;;12.35;;
84146;SDS011;74267;50.434;7.398;2024-03-08T04:47:08;19.95;;;11.82;;
84146;SDS011;74267;50.434;7.398;2024-03-08T04:49:35;22.77;;;13.73;;
84146;SDS011;74267;50.434;7.398;2024-03-08T04:52:01;20.13;;;11.82;;
84146;SDS011;74267;50.434;7.398;2024-03-08T04:54:28;24.00;;;14.02;;
84146;SDS011;74267;50.434;7.398;2024-03-08T04:56:53;21.85;;;13.82;;
84146;SDS011;74267;50.434;7.398;2024-03-08T04:59:18;21.88;;;12.25;;
84146;SDS011;74267;50.434;7.398;2024-03-08T05:01:44;23.83;;;13.13;;
84146;SDS011;74267;50.434;7.398;2024-03-08T05:04:09;22.92;;;18.60;;
84146;SDS011;74267;50.434;7.398;2024-03-08T05:06:35;23.98;;;12.10;;
84146;SDS011;74267;50.434;7.398;2024-03-08T05:09:01;20.92;;;12.80;;
84146;SDS011;74267;50.434;7.398;2024-03-08T05:11:38;22.50;;;12.70;;
84146;SDS011;74267;50.434;7.398;2024-03-08T05:14:04;23.67;;;12.45;;
84146;SDS011;74267;50.434;7.398;2024-03-08T05:16:30;22.65;;;12.40;;
84146;SDS011;74267;50.434;7.398;2024-03-08T05:18:55;21.80;;;13.07;;
84146;SDS011;74267;50.434;7.398;2024-03-08T05:21:21;19.33;;;10.90;;
84146;SDS011;74267;50.434;7.398;2024-03-08T05:23:47;22.27;;;12.20;;
84146;SDS011;74267;50.434;7.398;2024-03-08T05:26:12;20.15;;;11.75;;
84146;SDS011;74267;50.434;7.398;2024-03-08T05:28:39;24.33;;;13.13;;
84146;SDS011;74267;50.434;7.398;2024-03-08T05:31:04;22.60;;;11.30;;
84146;SDS011;74267;50.434;7.398;2024-03-08T05:33:30;21.45;;;12.13;;
84146;SDS011;74267;50.434;7.398;2024-03-08T05:35:55;21.02;;;14.77;;
84146;SDS011;74267;50.434;7.398;2024-03-08T05:38:20;24.05;;;17.13;;
84146;SDS011;74267;50.434;7.398;2024-03-08T05:40:46;22.02;;;12.23;;
84146;SDS011;74267;50.434;7.398;2024-03-08T05:43:11;23.25;;;13.65;;
84146;SDS011;74267;50.434;7.398;2024-03-08T05:45:37;23.73;;;14.35;;
84146;SDS011;74267;50.434;7.398;2024-03-08T05:48:02;23.60;;;14.38;;
84146;SDS011;74267;50.434;7.398;2024-03-08T05:50:28;21.58;;;13.23;;
84146;SDS011;74267;50.434;7.398;2024-03-08T05:52:53;26.02;;;18.58;;
84146;SDS011;74267;50.434;7.398;2024-03-08T05:55:19;21.90;;;13.27;;
84146;SDS011;74267;50.434;7.398;2024-03-08T05:57:44;23.63;;;17.77;;
84146;SDS011;74267;50.434;7.398;2024-03-08T06:00:10;24.40;;;13.85;;
84146;SDS011;74267;50.434;7.398;2024-03-08T06:02:40;21.25;;;12.15;;
84146;SDS011;74267;50.434;7.398;2024-03-08T06:05:09;23.10;;;16.50;;
84146;SDS011;74267;50.434;7.398;2024-03-08T06:07:36;20.50;;;12.77;;
84146;SDS011;74267;50.434;7.398;2024-03-08T06:10:02;24.75;;;17.98;;
84146;SDS011;74267;50.434;7.398;2024-03-08T06:12:28;22.98;;;13.57;;
84146;SDS011;74267;50.434;7.398;2024-03-08T06:14:57;23.90;;;12.70;;
84146;SDS011;74267;50.434;7.398;2024-03-08T06:17:22;22.25;;;12.43;;
84146;SDS011;74267;50.434;7.398;2024-03-08T06:19:50;24.40;;;16.83;;
84146;SDS011;74267;50.434;7.398;2024-03-08T06:22:16;23.95;;;15.88;;
84146;SDS011;74267;50.434;7.398;2024-03-08T06:24:41;23.52;;;15.10;;
84146;SDS011;74267;50.434;7.398;2024-03-08T06:27:07;22.40;;;11.85;;
84146;SDS011;74267;50.434;7.398;2024-03-08T06:29:34;24.15;;;14.15;;
84146;SDS011;74267;50.434;7.398;2024-03-08T06:32:00;22.30;;;12.48;;
84146;SDS011;74267;50.434;7.398;2024-03-08T06:34:25;27.17;;;16.42;;
84146;SDS011;74267;50.434;7.398;2024-03-08T06:36:50;26.13;;;17.20;;
84146;SDS011;74267;50.434;7.398;2024-03-08T06:39:17;23.45;;;12.68;;
84146;SDS011;74267;50.434;7.398;2024-03-08T06:41:42;21.95;;;12.55;;
84146;SDS011;74267;50.434;7.398;2024-03-08T06:44:09;22.40;;;13.05;;
84146;SDS011;74267;50.434;7.398;2024-03-08T06:46:35;24.45;;;13.23;;
84146;SDS011;74267;50.434;7.398;2024-03-08T06:49:00;27.92;;;15.63;;
84146;SDS011;74267;50.434;7.398;2024-03-08T06:51:26;26.55;;;14.30;;
84146;SDS011;74267;50.434;7.398;2024-03-08T06:53:51;25.23;;;14.57;;
84146;SDS011;74267;50.434;7.398;2024-03-08T06:56:18;27.55;;;19.25;;
84146;SDS011;74267;50.434;7.398;2024-03-08T06:58:44;24.05;;;16.83;;
84146;SDS011;74267;50.434;7.398;2024-03-08T07:01:12;24.23;;;13.25;;
84146;SDS011;74267;50.434;7.398;2024-03-08T07:03:41;24.45;;;14.55;;
84146;SDS011;74267;50.434;7.398;2024-03-08T07:06:09;27.88;;;13.90;;
84146;SDS011;74267;50.434;7.398;2024-03-08T07:08:35;26.08;;;14.52;;
84146;SDS011;74267;50.434;7.398;2024-03-08T07:11:00;26.80;;;14.38;;
84146;SDS011;74267;50.434;7.398;2024-03-08T07:13:26;25.42;;;14.20;;
84146;SDS011;74267;50.434;7.398;2024-03-08T07:15:53;26.55;;;14.27;;
84146;SDS011;74267;50.434;7.398;2024-03-08T07:18:18;26.48;;;14.00;;
84146;SDS011;74267;50.434;7.398;2024-03-08T07:20:43;23.80;;;13.45;;
84146;SDS011;74267;50.434;7.398;2024-03-08T07:23:09;27.08;;;13.75;;
84146;SDS011;74267;50.434;7.398;2024-03-08T07:25:35;26.05;;;14.35;;
84146;SDS011;74267;50.434;7.398;2024-03-08T07:28:01;23.45;;;19.05;;
84146;SDS011;74267;50.434;7.398;2024-03-08T07:30:26;26.02;;;19.13;;
84146;SDS011;74267;50.434;7.398;2024-03-08T07:33:13;25.83;;;13.85;;
84146;SDS011;74267;50.434;7.398;2024-03-08T07:35:39;26.85;;;15.23;;
84146;SDS011;74267;50.434;7.398;2024-03-08T07:38:05;23.08;;;13.63;;
84146;SDS011;74267;50.434;7.398;2024-03-08T07:40:33;27.83;;;19.13;;
84146;SDS011;74267;50.434;7.398;2024-03-08T07:43:05;21.05;;;12.65;;
84146;SDS011;74267;50.434;7.398;2024-03-08T07:45:31;25.25;;;14.88;;
84146;SDS011;74267;50.434;7.398;2024-03-08T07:47:56;23.60;;;16.98;;
84146;SDS011;74267;50.434;7.398;2024-03-08T07:50:22;23.95;;;13.77;;
84146;SDS011;74267;50.434;7.398;2024-03-08T07:52:48;25.88;;;13.38;;
84146;SDS011;74267;50.434;7.398;2024-03-08T07:55:13;25.77;;;14.32;;
84146;SDS011;74267;50.434;7.398;2024-03-08T07:57:40;25.88;;;14.80;;
84146;SDS011;74267;50.434;7.398;2024-03-08T08:00:05;25.38;;;14.00;;
84146;SDS011;74267;50.434;7.398;2024-03-08T08:02:34;27.02;;;13.32;;
84146;SDS011;74267;50.434;7.398;2024-03-08T08:05:02;25.33;;;14.82;;
84146;SDS011;74267;50.434;7.398;2024-03-08T08:07:28;26.08;;;15.63;;
84146;SDS011;74267;50.434;7.398;2024-03-08T08:09:54;23.48;;;12.80;;
84146;SDS011;74267;50.434;7.398;2024-03-08T08:12:19;27.52;;;14.70;;
84146;SDS011;74267;50.434;7.398;2024-03-08T08:14:44;27.02;;;18.45;;
84146;SDS011;74267;50.434;7.398;2024-03-08T08:17:10;24.17;;;12.93;;
84146;SDS011;74267;50.434;7.398;2024-03-08T08:19:37;22.48;;;14.60;;
84146;SDS011;74267;50.434;7.398;2024-03-08T08:22:03;24.70;;;18.48;;
84146;SDS011;74267;50.434;7.398;2024-03-08T08:24:28;27.70;;;18.80;;
84146;SDS011;74267;50.434;7.398;2024-03-08T08:26:54;24.10;;;16.20;;
84146;SDS011;74267;50.434;7.398;2024-03-08T08:29:19;25.35;;;17.77;;
84146;SDS011;74267;50.434;7.398;2024-03-08T08:31:45;21.58;;;17.27;;
84146;SDS011;74267;50.434;7.398;2024-03-08T08:34:12;23.55;;;12.80;;
84146;SDS011;74267;50.434;7.398;2024-03-08T08:36:38;21.15;;;16.30;;
84146;SDS011;74267;50.434;7.398;2024-03-08T08:39:04;22.67;;;17.10;;
84146;SDS011;74267;50.434;7.398;2024-03-08T08:41:36;20.80;;;14.85;;
84146;SDS011;74267;50.434;7.398;2024-03-08T08:44:01;20.98;;;12.50;;
84146;SDS011;74267;50.434;7.398;2024-03-08T08:46:27;24.73;;;16.73;;
84146;SDS011;74267;50.434;7.398;2024-03-08T08:48:52;22.55;;;13.18;;
84146;SDS011;74267;50.434;7.398;2024-03-08T08:51:17;23.48;;;12.30;;
84146;SDS011;74267;50.434;7.398;2024-03-08T08:53:43;23.15;;;15.98;;
84146;SDS011;74267;50.434;7.398;2024-03-08T08:56:13;21.50;;;12.18;;
84146;SDS011;74267;50.434;7.398;2024-03-08T09:01:05;20.25;;;11.23;;
84146;SDS011;74267;50.434;7.398;2024-03-08T09:03:32;20.40;;;11.57;;
84146;SDS011;74267;50.434;7.398;2024-03-08T09:05:59;24.40;;;18.35;;
84146;SDS011;74267;50.434;7.398;2024-03-08T09:08:25;22.45;;;12.38;;
84146;SDS011;74267;50.434;7.398;2024-03-08T09:10:50;23.30;;;15.50;;
84146;SDS011;74267;50.434;7.398;2024-03-08T09:13:16;21.15;;;15.80;;
84146;SDS011;74267;50.434;7.398;2024-03-08T09:15:41;19.63;;;14.48;;
84146;SDS011;74267;50.434;7.398;2024-03-08T09:18:07;25.58;;;19.45;;
84146;SDS011;74267;50.434;7.398;2024-03-08T09:20:34;19.83;;;11.73;;
84146;SDS011;74267;50.434;7.398;2024-03-08T09:22:59;23.77;;;18.58;;
84146;SDS011;74267;50.434;7.398;2024-03-08T09:25:25;22.05;;;16.13;;
84146;SDS011;74267;50.434;7.398;2024-03-08T09:27:51;22.45;;;15.77;;
84146;SDS011;74267;50.434;7.398;2024-03-08T09:30:16;19.95;;;12.07;;
84146;SDS011;74267;50.434;7.398;2024-03-08T09:32:43;19.98;;;12.73;;
84146;SDS011;74267;50.434;7.398;2024-03-08T09:35:08;23.55;;;16.27;;
84146;SDS011;74267;50.434;7.398;2024-03-08T09:37:34;19.85;;;16.70;;
84146;SDS011;74267;50.434;7.398;2024-03-08T09:40:00;20.52;;;11.55;;
84146;SDS011;74267;50.434;7.398;2024-03-08T09:42:29;21.90;;;16.17;;
84146;SDS011;74267;50.434;7.398;2024-03-08T09:44:55;20.63;;;13.77;;
84146;SDS011;74267;50.434;7.398;2024-03-08T09:47:20;19.83;;;11.38;;
84146;SDS011;74267;50.434;7.398;2024-03-08T09:49:49;17.48;;;10.32;;
84146;SDS011;74267;50.434;7.398;2024-03-08T09:52:15;19.60;;;15.57;;
84146;SDS011;74267;50.434;7.398;2024-03-08T09:54:41;20.77;;;14.43;;
84146;SDS011;74267;50.434;7.398;2024-03-08T09:57:09;17.90;;;10.38;;
84146;SDS011;74267;50.434;7.398;2024-03-08T09:59:35;17.48;;;13.52;;
84146;SDS011;74267;50.434;7.398;2024-03-08T10:02:01;15.25;;;9.18;;
84146;SDS011;74267;50.434;7.398;2024-03-08T10:04:27;16.48;;;10.88;;
84146;SDS011;74267;50.434;7.398;2024-03-08T10:06:55;18.30;;;10.82;;
84146;SDS011;74267;50.434;7.398;2024-03-08T10:09:24;19.38;;;14.20;;
84146;SDS011;74267;50.434;7.398;2024-03-08T10:11:53;20.63;;;15.27;;
84146;SDS011;74267;50.434;7.398;2024-03-08T10:14:21;20.13;;;13.70;;
84146;SDS011;74267;50.434;7.398;2024-03-08T10:16:46;19.05;;;14.50;;
84146;SDS011;74267;50.434;7.398;2024-03-08T10:19:12;15.23;;;9.73;;
84146;SDS011;74267;50.434;7.398;2024-03-08T10:21:47;19.15;;;13.73;;
84146;SDS011;74267;50.434;7.398;2024-03-08T10:24:13;17.38;;;9.85;;
84146;SDS011;74267;50.434;7.398;2024-03-08T10:26:39;16.58;;;13.35;;
84146;SDS011;74267;50.434;7.398;2024-03-08T10:29:04;15.52;;;13.30;;
84146;SDS011;74267;50.434;7.398;2024-03-08T10:31:30;18.48;;;14.00;;
84146;SDS011;74267;50.434;7.398;2024-03-08T10:33:58;18.65;;;12.77;;
84146;SDS011;74267;50.434;7.398;2024-03-08T10:36:23;16.98;;;12.45;;
84146;SDS011;74267;50.434;7.398;2024-03-08T10:38:50;12.70;;;10.35;;
84146;SDS011;74267;50.434;7.398;2024-03-08T10:41:18;16.17;;;11.48;;
84146;SDS011;74267;50.434;7.398;2024-03-08T10:49:25;16.52;;;11.30;;
84146;SDS011;74267;50.434;7.398;2024-03-08T10:51:55;14.50;;;10.95;;
84146;SDS011;74267;50.434;7.398;2024-03-08T10:54:22;12.05;;;7.82;;
84146;SDS011;74267;50.434;7.398;2024-03-08T10:56:50;13.35;;;8.35;;
84146;SDS011;74267;50.434;7.398;2024-03-08T10:59:16;10.55;;;8.80;;
84146;SDS011;74267;50.434;7.398;2024-03-08T11:01:43;9.55;;;6.47;;
84146;SDS011;74267;50.434;7.398;2024-03-08T11:04:09;12.63;;;9.70;;
84146;SDS011;74267;50.434;7.398;2024-03-08T11:09:03;11.63;;;9.88;;
84146;SDS011;74267;50.434;7.398;2024-03-08T11:11:38;9.18;;;5.63;;
84146;SDS011;74267;50.434;7.398;2024-03-08T11:14:07;11.75;;;7.10;;
84146;SDS011;74267;50.434;7.398;2024-03-08T11:17:07;11.32;;;9.80;;
84146;SDS011;74267;50.434;7.398;2024-03-08T11:19:33;12.60;;;9.73;;
84146;SDS011;74267;50.434;7.398;2024-03-08T11:22:02;14.77;;;10.18;;
84146;SDS011;74267;50.434;7.398;2024-03-08T11:24:36;12.20;;;9.73;;
84146;SDS011;74267;50.434;7.398;2024-03-08T11:27:05;12.43;;;10.00;;
84146;SDS011;74267;50.434;7.398;2024-03-08T11:29:32;12.40;;;9.00;;
84146;SDS011;74267;50.434;7.398;2024-03-08T11:34:36;9.80;;;7.43;;
84146;SDS011;74267;50.434;7.398;2024-03-08T11:37:12;10.80;;;9.70;;
84146;SDS011;74267;50.434;7.398;2024-03-08T11:39:40;10.65;;;6.80;;
84146;SDS011;74267;50.434;7.398;2024-03-08T11:42:11;11.15;;;9.80;;
84146;SDS011;74267;50.434;7.398;2024-03-08T11:44:36;8.88;;;6.43;;
84146;SDS011;74267;50.434;7.398;2024-03-08T11:47:02;11.50;;;7.22;;
84146;SDS011;74267;50.434;7.398;2024-03-08T11:49:32;10.02;;;6.68;;
84146;SDS011;74267;50.434;7.398;2024-03-08T11:51:58;11.57;;;9.98;;
84146;SDS011;74267;50.434;7.398;2024-03-08T11:54:24;13.05;;;10.25;;
84146;SDS011;74267;50.434;7.398;2024-03-08T11:56:51;10.63;;;7.20;;
84146;SDS011;74267;50.434;7.398;2024-03-08T11:59:17;12.45;;;7.25;;
84146;SDS011;74267;50.434;7.398;2024-03-08T12:01:42;10.13;;;6.05;;
84146;SDS011;74267;50.434;7.398;2024-03-08T12:04:11;12.70;;;10.45;;
84146;SDS011;74267;50.434;7.398;2024-03-08T12:06:37;13.13;;;7.68;;
84146;SDS011;74267;50.434;7.398;2024-03-08T12:09:10;11.00;;;8.38;;
84146;SDS011;74267;50.434;7.398;2024-03-08T12:11:36;13.55;;;11.00;;
84146;SDS011;74267;50.434;7.398;2024-03-08T12:14:02;11.95;;;9.93;;
84146;SDS011;74267;50.434;7.398;2024-03-08T12:16:28;12.73;;;9.45;;
84146;SDS011;74267;50.434;7.398;2024-03-08T12:18:54;11.35;;;7.95;;
84146;SDS011;74267;50.434;7.398;2024-03-08T12:21:20;12.75;;;10.38;;
84146;SDS011;74267;50.434;7.398;2024-03-08T12:23:47;12.98;;;10.38;;
84146;SDS011;74267;50.434;7.398;2024-03-08T12:26:23;11.13;;;7.82;;
84146;SDS011;74267;50.434;7.398;2024-03-08T12:28:51;12.00;;;9.70;;
84146;SDS011;74267;50.434;7.398;2024-03-08T12:31:17;12.45;;;7.57;;
84146;SDS011;74267;50.434;7.398;2024-03-08T12:33:49;11.93;;;7.75;;
84146;SDS011;74267;50.434;7.398;2024-03-08T12:36:15;12.85;;;11.52;;
84146;SDS011;74267;50.434;7.398;2024-03-08T12:38:45;13.50;;;10.15;;
84146;SDS011;74267;50.434;7.398;2024-03-08T12:41:13;11.52;;;7.40;;
84146;SDS011;74267;50.434;7.398;2024-03-08T12:43:39;12.77;;;9.55;;
84146;SDS011;74267;50.434;7.398;2024-03-08T12:46:04;10.73;;;6.97;;
84146;SDS011;74267;50.434;7.398;2024-03-08T12:48:33;10.27;;;7.20;;
84146;SDS011;74267;50.434;7.398;2024-03-08T12:51:05;12.77;;;7.85;;
84146;SDS011;74267;50.434;7.398;2024-03-08T12:53:32;11.50;;;8.05;;
84146;SDS011;74267;50.434;7.398;2024-03-08T12:55:57;16.65;;;9.52;;
84146;SDS011;74267;50.434;7.398;2024-03-08T12:58:23;14.07;;;9.45;;
84146;SDS011;74267;50.434;7.398;2024-03-08T13:00:48;14.35;;;10.23;;
84146;SDS011;74267;50.434;7.398;2024-03-08T13:03:14;11.82;;;7.25;;
84146;SDS011;74267;50.434;7.398;2024-03-08T13:05:39;14.15;;;10.32;;
84146;SDS011;74267;50.434;7.398;2024-03-08T13:08:05;12.45;;;10.20;;
84146;SDS011;74267;50.434;7.398;2024-03-08T13:10:37;11.40;;;9.82;;
84146;SDS011;74267;50.434;7.398;2024-03-08T13:13:03;14.25;;;10.07;;
84146;SDS011;74267;50.434;7.398;2024-03-08T13:15:29;12.73;;;8.27;;
84146;SDS011;74267;50.434;7.398;2024-03-08T13:17:55;12.68;;;7.93;;
84146;SDS011;74267;50.434;7.398;2024-03-08T13:20:23;13.10;;;7.40;;
84146;SDS011;74267;50.434;7.398;2024-03-08T13:22:48;14.23;;;11.55;;
84146;SDS011;74267;50.434;7.398;2024-03-08T13:25:13;12.35;;;7.47;;
84146;SDS011;74267;50.434;7.398;2024-03-08T13:30:08;15.60;;;8.05;;
84146;SDS011;74267;50.434;7.398;2024-03-08T13:32:38;12.05;;;10.75;;
84146;SDS011;74267;50.434;7.398;2024-03-08T13:35:08;12.90;;;8.45;;
84146;SDS011;74267;50.434;7.398;2024-03-08T13:37:40;12.75;;;10.38;;
84146;SDS011;74267;50.434;7.398;2024-03-08T13:40:07;12.65;;;7.32;;
84146;SDS011;74267;50.434;7.398;2024-03-08T13:42:36;13.90;;;7.90;;
84146;SDS011;74267;50.434;7.398;2024-03-08T13:45:03;14.35;;;10.95;;
84146;SDS011;74267;50.434;7.398;2024-03-08T13:47:32;12.55;;;10.70;;
84146;SDS011;74267;50.434;7.398;2024-03-08T13:49:57;13.80;;;10.43;;
84146;SDS011;74267;50.434;7.398;2024-03-08T13:52:23;15.07;;;10.85;;
84146;SDS011;74267;50.434;7.398;2024-03-08T13:54:50;13.18;;;7.65;;
84146;SDS011;74267;50.434;7.398;2024-03-08T13:57:16;11.35;;;7.95;;
84146;SDS011;74267;50.434;7.398;2024-03-08T13:59:43;15.38;;;8.05;;
84146;SDS011;74267;50.434;7.398;2024-03-08T14:02:09;14.88;;;11.27;;
84146;SDS011;74267;50.434;7.398;2024-03-08T14:04:38;12.23;;;7.70;;
84146;SDS011;74267;50.434;7.398;2024-03-08T14:07:05;13.07;;;7.68;;
84146;SDS011;74267;50.434;7.398;2024-03-08T14:09:33;10.73;;;7.25;;
84146;SDS011;74267;50.434;7.398;2024-03-08T14:12:02;13.32;;;11.23;;
84146;SDS011;74267;50.434;7.398;2024-03-08T14:14:31;14.18;;;8.18;;
84146;SDS011;74267;50.434;7.398;2024-03-08T14:16:56;13.32;;;10.20;;
84146;SDS011;74267;50.434;7.398;2024-03-08T14:19:23;12.38;;;7.70;;
84146;SDS011;74267;50.434;7.398;2024-03-08T14:21:48;12.52;;;7.95;;
84146;SDS011;74267;50.434;7.398;2024-03-08T14:24:17;11.23;;;7.20;;
84146;SDS011;74267;50.434;7.398;2024-03-08T14:26:43;13.02;;;10.05;;
84146;SDS011;74267;50.434;7.398;2024-03-08T14:29:09;13.20;;;7.82;;
84146;SDS011;74267;50.434;7.398;2024-03-08T14:31:35;13.38;;;10.20;;
84146;SDS011;74267;50.434;7.398;2024-03-08T14:34:01;12.98;;;10.35;;
84146;SDS011;74267;50.434;7.398;2024-03-08T14:36:28;14.93;;;10.13;;
84146;SDS011;74267;50.434;7.398;2024-03-08T14:38:56;13.68;;;11.50;;
84146;SDS011;74267;50.434;7.398;2024-03-08T14:41:22;16.05;;;10.93;;